Millsap, Texas
Current Conditions -  °F | °C
As of 7:15 AM on Sunday 23 Nov 2014 (Local Time) from KGDJ Reporting Station
Clear Clear  
Wind Chill: 54°   Ceiling: Unl
Heat Index: 54°   Visibility: 10mi
Dew Point: 51°   Wind: 3mph
Humidity: 91%   Direction: 160°SSE
Pressure: 29.59"   Gusts: NA
Location:  32.75°N, 98.01°W
Report Text: KGDJ 231315Z AUTO 16003KT 10SM CLR 12/11 A2959 RMK AO2 T01230108
Loading
Personal Weather Stations






























Interactive Weather Map New forecast layout! Learn more

10-Day Weather Forecast

Advertisements
Track Severe Weather on mobile